createdAt,value
2022-10-13T00:01:18.498Z,98136.59
2022-10-13T00:03:47.297Z,98140.81
2022-10-13T00:06:26.224Z,98138.81
2022-10-13T00:08:54.918Z,98140.31
2022-10-13T00:11:29.655Z,98138.44
2022-10-13T00:14:02.021Z,98135.28
2022-10-13T00:16:31.884Z,98131.44
2022-10-13T00:18:59.993Z,98139.19
2022-10-13T00:21:28.946Z,98137.50
2022-10-13T00:23:56.988Z,98129.56
2022-10-13T00:26:26.775Z,98133.56
2022-10-13T00:28:56.584Z,98135.22
2022-10-13T00:31:31.282Z,98125.84
2022-10-13T00:34:01.077Z,98135.03
2022-10-13T00:36:29.670Z,98131.34
2022-10-13T00:38:58.462Z,98128.47
2022-10-13T00:41:26.503Z,98121.44
2022-10-13T00:44:07.462Z,98136.34
2022-10-13T00:46:37.357Z,98135.50
2022-10-13T00:49:12.102Z,98134.69
2022-10-13T00:51:47.456Z,98129.13
2022-10-13T00:54:20.813Z,98132.69
2022-10-13T00:56:50.803Z,98126.28
2022-10-13T00:59:29.076Z,98127.13
2022-10-13T01:01:59.660Z,98130.00
2022-10-13T01:04:42.106Z,98135.19
2022-10-13T01:07:10.688Z,98133.31
2022-10-13T01:09:38.609Z,98128.59
2022-10-13T01:12:36.714Z,98127.22
2022-10-13T01:15:22.692Z,98127.03
2022-10-13T01:17:57.072Z,98127.88
2022-10-13T01:20:52.361Z,98124.00
2022-10-13T01:23:26.202Z,98126.13
2022-10-13T01:26:18.681Z,98123.19
2022-10-13T01:29:06.112Z,98119.56
2022-10-13T01:31:37.733Z,98120.13
2022-10-13T01:34:30.226Z,98110.75
2022-10-13T01:37:00.579Z,98103.34
2022-10-13T01:39:42.945Z,98112.06
2022-10-13T01:42:24.945Z,98105.88
2022-10-13T01:45:00.442Z,98105.00
2022-10-13T01:47:31.881Z,98098.16
2022-10-13T01:50:01.522Z,98099.00
2022-10-13T01:52:37.988Z,98093.78
2022-10-13T01:55:12.755Z,98098.16
2022-10-13T01:57:43.875Z,98107.03
2022-10-13T02:00:18.570Z,98100.03
2022-10-13T02:03:13.816Z,98113.63
2022-10-13T02:05:49.542Z,98103.88
2022-10-13T02:08:48.573Z,98110.00
2022-10-13T02:11:20.317Z,98101.28
2022-10-13T02:14:13.077Z,98096.28
2022-10-13T02:16:45.618Z,98104.31
2022-10-13T02:19:18.276Z,98099.63
2022-10-13T02:21:47.161Z,98106.47
2022-10-13T02:24:15.059Z,98100.75
2022-10-13T02:26:44.566Z,98102.25
2022-10-13T02:29:16.049Z,98098.16
2022-10-13T02:31:45.305Z,98094.91
2022-10-13T02:34:14.842Z,98098.72
2022-10-13T02:36:45.556Z,98096.50
2022-10-13T02:39:13.488Z,98096.16
2022-10-13T02:41:41.278Z,98092.25
2022-10-13T02:44:09.297Z,98089.22
2022-10-13T02:46:42.277Z,98089.63
2022-10-13T02:49:10.873Z,98087.25
2022-10-13T02:51:40.290Z,98086.25
2022-10-13T02:54:08.895Z,98092.44
2022-10-13T02:56:36.722Z,98089.28
2022-10-13T02:59:04.785Z,98084.72
2022-10-13T03:01:33.068Z,98086.59
2022-10-13T03:04:00.934Z,98089.94
2022-10-13T03:06:28.714Z,98088.72
2022-10-13T03:08:56.531Z,98078.44
2022-10-13T03:11:24.326Z,98084.28
2022-10-13T03:13:52.477Z,98088.63
2022-10-13T03:16:20.722Z,98084.09
2022-10-13T03:18:48.598Z,98084.72
2022-10-13T03:21:16.427Z,98068.44
2022-10-13T03:23:44.392Z,98076.97
2022-10-13T03:26:12.207Z,98059.97
2022-10-13T03:28:40.133Z,98058.50
2022-10-13T03:31:11.090Z,98059.91
2022-10-13T03:33:40.796Z,98061.31
2022-10-13T03:36:08.872Z,98046.41
2022-10-13T03:38:37.014Z,98060.19
2022-10-13T03:41:11.167Z,98057.69
2022-10-13T03:43:40.490Z,98067.63
2022-10-13T03:46:14.205Z,98066.41
2022-10-13T03:48:42.045Z,98066.09
2022-10-13T03:51:17.132Z,98066.88
2022-10-13T03:53:51.412Z,98062.25
2022-10-13T03:56:23.960Z,98062.25
2022-10-13T03:59:00.359Z,98070.66
2022-10-13T04:01:30.224Z,98060.66
2022-10-13T04:04:00.199Z,98057.53
2022-10-13T04:06:28.326Z,98061.78
2022-10-13T04:08:56.565Z,98055.56
2022-10-13T04:11:24.977Z,98050.38
2022-10-13T04:13:59.253Z,98052.25
2022-10-13T04:16:30.565Z,98052.81
2022-10-13T04:19:04.120Z,98054.66
2022-10-13T04:21:34.693Z,98056.69
2022-10-13T04:24:03.417Z,98063.91
2022-10-13T04:26:34.973Z,98071.31
2022-10-13T04:29:10.514Z,98062.25
2022-10-13T04:31:40.378Z,98066.13
2022-10-13T04:34:08.584Z,98067.81
2022-10-13T04:36:36.499Z,98061.22
2022-10-13T04:39:04.915Z,98061.88
2022-10-13T04:41:34.107Z,98057.16
2022-10-13T04:44:02.632Z,98061.06
2022-10-13T04:46:30.869Z,98058.06
2022-10-13T04:48:58.751Z,98054.47
2022-10-13T04:51:33.753Z,98050.94
2022-10-13T04:54:03.103Z,98046.09
2022-10-13T04:56:31.421Z,98038.22
2022-10-13T04:59:05.941Z,98040.28
2022-10-13T05:01:36.035Z,98039.63
2022-10-13T05:04:07.620Z,98048.66
2022-10-13T05:06:58.973Z,98045.72
2022-10-13T05:09:29.025Z,98043.41
2022-10-13T05:11:57.376Z,98054.88
2022-10-13T05:14:25.374Z,98052.38
2022-10-13T05:16:54.361Z,98053.56
2022-10-13T05:19:22.252Z,98053.19
2022-10-13T05:21:50.299Z,98060.72
2022-10-13T05:24:18.171Z,98052.94
2022-10-13T05:26:50.442Z,98055.63
2022-10-13T05:29:18.427Z,98051.28
2022-10-13T05:31:46.291Z,98049.06
2022-10-13T05:34:14.155Z,98053.78
2022-10-13T05:36:41.949Z,98054.78
2022-10-13T05:39:10.517Z,98068.38
2022-10-13T05:41:39.455Z,98063.00
2022-10-13T05:44:14.250Z,98067.03
2022-10-13T05:46:54.454Z,98060.06
2022-10-13T05:49:22.725Z,98060.06
2022-10-13T05:51:58.912Z,98049.53
2022-10-13T05:54:38.263Z,98046.19
2022-10-13T05:57:41.482Z,98045.72
2022-10-13T06:00:18.969Z,98040.53
2022-10-13T06:03:07.117Z,98046.25
2022-10-13T06:05:35.103Z,98039.72
2022-10-13T06:08:03.013Z,98026.94
2022-10-13T06:10:31.260Z,98038.97
2022-10-13T06:12:59.034Z,98042.66
2022-10-13T06:15:28.285Z,98041.00
2022-10-13T06:17:57.438Z,98045.56
2022-10-13T06:20:26.730Z,98045.56
2022-10-13T06:22:56.037Z,98042.66
2022-10-13T06:25:23.962Z,98037.75
2022-10-13T06:27:51.857Z,98037.41
2022-10-13T06:30:19.770Z,98037.69
2022-10-13T06:32:47.543Z,98039.56
2022-10-13T06:35:15.525Z,98042.06
2022-10-13T06:37:43.709Z,98034.00
2022-10-13T06:40:12.832Z,98034.00
2022-10-13T06:42:40.665Z,98037.69
2022-10-13T06:45:10.489Z,98036.88
2022-10-13T06:47:41.346Z,98030.81
2022-10-13T06:50:09.780Z,98021.78
2022-10-13T06:52:38.288Z,98019.94
2022-10-13T06:55:06.738Z,98018.91
2022-10-13T06:57:35.721Z,98016.22
2022-10-13T07:00:07.583Z,98016.22
2022-10-13T07:02:36.216Z,98019.59
2022-10-13T07:05:04.542Z,98020.03
2022-10-13T07:07:32.404Z,98022.53
2022-10-13T07:10:00.240Z,98022.16
2022-10-13T07:12:28.028Z,98030.41
2022-10-13T07:14:55.966Z,98031.41
2022-10-13T07:17:23.764Z,98036.59
2022-10-13T07:19:56.946Z,98033.44
2022-10-13T07:22:26.930Z,98038.47
2022-10-13T07:24:54.761Z,98041.59
2022-10-13T07:27:24.137Z,98040.88
2022-10-13T07:29:52.309Z,98039.19
2022-10-13T07:32:20.096Z,98031.59
2022-10-13T07:34:48.022Z,98037.34
2022-10-13T07:37:16.500Z,98035.13
2022-10-13T07:39:44.471Z,98039.28
2022-10-13T07:42:12.279Z,98040.59
2022-10-13T07:44:40.076Z,98041.59
2022-10-13T07:47:07.878Z,98037.72
2022-10-13T07:49:35.878Z,98032.16
2022-10-13T07:52:05.053Z,98030.19
2022-10-13T07:54:32.987Z,98028.78
2022-10-13T07:57:00.792Z,98026.56
2022-10-13T07:59:28.815Z,98027.84
2022-10-13T08:01:56.657Z,98006.66
2022-10-13T08:04:25.537Z,98003.84
2022-10-13T08:06:53.404Z,97999.75
2022-10-13T08:09:21.568Z,97998.78
2022-10-13T08:11:49.539Z,98010.63
2022-10-13T08:14:17.678Z,98006.19
2022-10-13T08:16:48.740Z,98010.59
2022-10-13T08:19:22.140Z,98004.34
2022-10-13T08:21:58.185Z,98007.13
2022-10-13T08:24:28.596Z,98009.84
2022-10-13T08:26:56.945Z,98009.47
2022-10-13T08:29:24.873Z,98008.88
2022-10-13T08:31:54.127Z,98006.00
2022-10-13T08:34:24.508Z,98004.41
2022-10-13T08:36:54.753Z,98005.06
2022-10-13T08:39:25.050Z,98003.09
2022-10-13T08:41:54.262Z,98001.47
2022-10-13T08:47:56.800Z,97997.81
2022-10-13T08:50:28.988Z,98000.88
2022-10-13T08:53:19.071Z,97999.00
2022-10-13T08:55:56.091Z,97997.66
2022-10-13T08:58:36.341Z,98002.06
2022-10-13T09:01:06.787Z,98006.25
2022-10-13T09:04:17.185Z,98003.78
2022-10-13T09:07:21.651Z,98015.47
2022-10-13T09:09:53.056Z,98008.28
2022-10-13T09:12:24.996Z,98006.84
2022-10-13T09:15:02.973Z,97996.69
2022-10-13T09:17:32.683Z,98007.09
2022-10-13T09:20:19.742Z,98000.69
2022-10-13T09:23:17.893Z,98003.41
2022-10-13T09:25:56.059Z,97997.00
2022-10-13T09:28:25.262Z,98002.63
2022-10-13T09:31:10.378Z,98001.19
2022-10-13T09:33:42.024Z,97999.50
2022-10-13T09:36:16.041Z,98001.59
2022-10-13T09:39:15.580Z,98002.25
2022-10-13T09:41:45.847Z,97992.31
2022-10-13T09:44:30.429Z,97993.34
2022-10-13T09:47:04.202Z,98000.22
2022-10-13T09:49:44.517Z,98000.41
2022-10-13T09:52:22.066Z,97990.66
2022-10-13T09:54:58.260Z,97998.16
2022-10-13T09:57:31.824Z,97986.31
2022-10-13T10:00:22.277Z,97994.81
2022-10-13T10:03:08.496Z,97995.25
2022-10-13T10:05:55.734Z,97997.94
2022-10-13T10:09:04.847Z,97996.31
2022-10-13T10:11:45.799Z,98003.59
2022-10-13T10:14:32.132Z,97996.34
2022-10-13T10:17:41.210Z,97994.06
2022-10-13T10:20:50.475Z,97998.22
2022-10-13T10:23:36.182Z,97991.59
2022-10-13T10:26:22.285Z,97991.19
2022-10-13T10:29:20.674Z,97994.06
2022-10-13T10:32:28.398Z,97993.88
2022-10-13T10:35:04.950Z,97987.22
2022-10-13T10:38:30.281Z,97989.72
2022-10-13T10:41:34.517Z,97980.19
2022-10-13T10:44:34.988Z,97976.88
2022-10-13T10:47:23.335Z,97965.84
2022-10-13T10:49:57.099Z,97973.34
2022-10-13T10:52:47.074Z,97972.91
2022-10-13T10:55:39.925Z,97970.19
2022-10-13T10:58:46.433Z,97956.09
2022-10-13T11:01:29.891Z,97956.69
2022-10-13T11:04:01.774Z,97952.97
2022-10-13T11:06:37.848Z,97946.31
2022-10-13T11:09:07.525Z,97936.78
2022-10-13T11:11:38.993Z,97936.56
2022-10-13T11:14:39.417Z,97931.34
2022-10-13T11:17:06.976Z,97924.00
2022-10-13T11:19:40.990Z,97931.09
2022-10-13T11:22:18.722Z,97928.78
2022-10-13T11:24:57.911Z,97926.09
2022-10-13T11:27:39.978Z,97920.09
2022-10-13T11:31:04.820Z,97923.19
2022-10-13T11:33:41.432Z,97920.28
2022-10-13T11:36:51.724Z,97911.31
2022-10-13T11:39:28.274Z,97908.00
2022-10-13T11:42:36.388Z,97903.38
2022-10-13T11:45:40.956Z,97899.16
2022-10-13T11:48:35.632Z,97901.59
2022-10-13T11:51:26.004Z,97898.69
2022-10-13T11:54:08.444Z,97903.91
2022-10-13T11:56:48.770Z,97901.19
2022-10-13T11:59:31.508Z,97887.47
2022-10-13T12:02:11.382Z,97882.47
2022-10-13T12:04:46.306Z,97872.47
2022-10-13T12:07:17.382Z,97866.59
2022-10-13T12:09:51.370Z,97863.47
2022-10-13T12:12:24.163Z,97859.28
2022-10-13T12:14:58.722Z,97866.09
2022-10-13T12:17:31.820Z,97856.28
2022-10-13T12:20:04.186Z,97850.81
2022-10-13T12:22:33.878Z,97847.03
2022-10-13T12:25:07.178Z,97836.19
2022-10-13T12:27:51.534Z,97838.03
2022-10-13T12:30:30.480Z,97837.13
2022-10-13T12:33:00.534Z,97832.13
2022-10-13T12:35:31.334Z,97826.88
2022-10-13T12:38:05.101Z,97822.06
2022-10-13T12:40:36.154Z,97828.47
2022-10-13T12:43:05.536Z,97828.91
2022-10-13T12:45:35.136Z,97831.19
2022-10-13T12:48:03.545Z,97832.81
2022-10-13T12:50:36.779Z,97824.28
2022-10-13T12:53:20.836Z,97817.94
2022-10-13T12:56:01.257Z,97816.22
2022-10-13T12:58:34.410Z,97816.00
2022-10-13T13:01:14.340Z,97815.59
2022-10-13T13:03:44.143Z,97812.25
2022-10-13T13:06:14.649Z,97812.09
2022-10-13T13:08:43.517Z,97816.44
2022-10-13T13:11:35.345Z,97822.72
2022-10-13T13:14:36.653Z,97820.81
2022-10-13T13:17:06.938Z,97815.03
2022-10-13T13:19:36.713Z,97810.31
2022-10-13T13:22:06.347Z,97815.72
2022-10-13T13:24:40.100Z,97811.13
2022-10-13T13:27:17.869Z,97811.56
2022-10-13T13:29:46.659Z,97817.88
2022-10-13T13:32:20.106Z,97811.03
2022-10-13T13:34:49.269Z,97807.56
2022-10-13T13:37:36.549Z,97813.47
2022-10-13T13:40:07.019Z,97815.78
2022-10-13T13:42:34.845Z,97811.66
2022-10-13T13:45:02.641Z,97811.34
2022-10-13T13:47:30.519Z,97807.75
2022-10-13T13:49:58.413Z,97816.94
2022-10-13T13:52:26.504Z,97819.09
2022-10-13T13:54:56.145Z,97825.19
2022-10-13T13:57:23.991Z,97820.06
2022-10-13T13:59:51.788Z,97811.38
2022-10-13T14:02:22.206Z,97814.88
2022-10-13T14:04:50.067Z,97813.69
2022-10-13T14:07:19.246Z,97805.97
2022-10-13T14:09:48.298Z,97808.72
2022-10-13T14:12:16.176Z,97799.34
2022-10-13T14:14:43.975Z,97801.63
2022-10-13T14:17:14.474Z,97811.00
2022-10-13T14:19:42.866Z,97818.69
2022-10-13T14:22:10.692Z,97819.31
2022-10-13T14:24:38.450Z,97808.50
2022-10-13T14:27:09.148Z,97812.03
2022-10-13T14:29:37.585Z,97815.75
2022-10-13T14:32:05.843Z,97817.84
2022-10-13T14:34:33.701Z,97813.72
2022-10-13T14:37:01.596Z,97817.22
2022-10-13T14:39:29.785Z,97815.16
2022-10-13T14:41:57.607Z,97815.38
2022-10-13T14:44:25.623Z,97820.19
2022-10-13T14:46:53.485Z,97819.72
2022-10-13T14:49:21.337Z,97817.03
2022-10-13T14:51:49.201Z,97805.41
2022-10-13T14:54:18.105Z,97805.41
2022-10-13T14:56:45.925Z,97799.19
2022-10-13T14:59:13.705Z,97798.56
2022-10-13T15:01:43.525Z,97799.38
2022-10-13T15:04:11.580Z,97792.94
2022-10-13T15:06:40.613Z,97811.19
2022-10-13T15:09:10.418Z,97807.88
2022-10-13T15:11:38.530Z,97804.78
2022-10-13T15:14:07.486Z,97806.88
2022-10-13T15:16:37.590Z,97814.34
2022-10-13T15:19:05.893Z,97806.47
2022-10-13T15:21:33.986Z,97813.94
2022-10-13T15:24:02.227Z,97810.69
2022-10-13T15:26:30.044Z,97808.59
2022-10-13T15:28:57.988Z,97815.44
2022-10-13T15:31:26.004Z,97811.91
2022-10-13T15:33:54.533Z,97811.09
2022-10-13T15:36:26.243Z,97810.28
2022-10-13T15:38:54.063Z,97815.25
2022-10-13T15:41:23.673Z,97812.16
2022-10-13T15:43:51.662Z,97812.16
2022-10-13T15:46:24.407Z,97809.25
2022-10-13T15:48:54.191Z,97804.50
2022-10-13T15:51:24.554Z,97804.09
2022-10-13T15:53:52.442Z,97799.31
2022-10-13T15:56:20.274Z,97814.47
2022-10-13T15:58:48.099Z,97802.03
2022-10-13T16:01:16.037Z,97803.03
2022-10-13T16:03:43.950Z,97798.50
2022-10-13T16:06:13.549Z,97801.19
2022-10-13T16:08:45.768Z,97798.50
2022-10-13T16:11:17.002Z,97817.59
2022-10-13T16:13:50.781Z,97808.88
2022-10-13T16:16:19.151Z,97793.72
2022-10-13T16:18:47.423Z,97790.19
2022-10-13T16:21:22.849Z,97794.78
2022-10-13T16:23:50.886Z,97812.84
2022-10-13T16:26:18.933Z,97806.81
2022-10-13T16:28:47.254Z,97804.75
2022-10-13T16:31:17.062Z,97807.47
2022-10-13T16:33:46.136Z,97804.16
2022-10-13T16:36:18.904Z,97802.47
2022-10-13T16:38:48.555Z,97807.69
2022-10-13T16:41:18.588Z,97797.53
2022-10-13T16:43:47.516Z,97799.41
2022-10-13T16:46:18.396Z,97792.38
2022-10-13T16:48:47.454Z,97792.97
2022-10-13T16:51:22.239Z,97797.34
2022-10-13T16:53:52.698Z,97800.88
2022-10-13T16:56:22.716Z,97804.63
2022-10-13T16:58:56.470Z,97801.06
2022-10-13T17:01:25.979Z,97796.13
2022-10-13T17:03:55.924Z,97799.84
2022-10-13T17:06:26.989Z,97802.97
2022-10-13T17:09:00.320Z,97797.78
2022-10-13T17:11:30.530Z,97797.16
2022-10-13T17:14:00.241Z,97790.75
2022-10-13T17:16:31.418Z,97792.22
2022-10-13T17:18:59.640Z,97799.44
2022-10-13T17:21:39.553Z,97797.59
2022-10-13T17:24:09.510Z,97796.34
2022-10-13T17:26:37.376Z,97793.63
2022-10-13T17:29:05.357Z,97793.63
2022-10-13T17:31:33.186Z,97790.94
2022-10-13T17:34:01.089Z,97787.63
2022-10-13T17:36:32.291Z,97786.16
2022-10-13T17:39:06.708Z,97785.97
2022-10-13T17:41:41.433Z,97799.22
2022-10-13T17:44:11.375Z,97791.56
2022-10-13T17:46:39.901Z,97802.56
2022-10-13T17:49:11.968Z,97795.94
2022-10-13T17:51:44.676Z,97802.59
2022-10-13T17:54:16.500Z,97798.41
2022-10-13T17:56:48.937Z,97797.19
2022-10-13T17:59:18.170Z,97797.19
2022-10-13T18:01:46.411Z,97802.38
2022-10-13T18:04:17.898Z,97800.69
2022-10-13T18:06:46.072Z,97802.78
2022-10-13T18:09:21.133Z,97800.94
2022-10-13T18:11:51.131Z,97814.41
2022-10-13T18:14:22.790Z,97809.84
2022-10-13T18:16:52.224Z,97805.66
2022-10-13T18:19:21.394Z,97810.06
2022-10-13T18:21:50.138Z,97805.88
2022-10-13T18:24:18.026Z,97814.81
2022-10-13T18:26:46.461Z,97812.13
2022-10-13T18:29:14.778Z,97812.94
2022-10-13T18:31:43.051Z,97817.09
2022-10-13T18:34:17.069Z,97823.72
2022-10-13T18:36:48.477Z,97826.22
2022-10-13T18:39:25.699Z,97825.78
2022-10-13T18:41:55.511Z,97818.34
2022-10-13T18:44:25.137Z,97817.72
2022-10-13T18:46:56.396Z,97816.47
2022-10-13T18:49:30.909Z,97814.16
2022-10-13T18:52:01.157Z,97812.31
2022-10-13T18:54:30.206Z,97810.44
2022-10-13T18:56:58.695Z,97799.88
2022-10-13T18:59:26.558Z,97803.38
2022-10-13T19:01:54.400Z,97801.53
2022-10-13T19:04:22.704Z,97807.75
2022-10-13T19:06:51.547Z,97799.66
2022-10-13T19:09:21.550Z,97804.44
2022-10-13T19:11:49.444Z,97803.81
2022-10-13T19:14:17.262Z,97815.84
2022-10-13T19:16:45.329Z,97813.78
2022-10-13T19:19:13.640Z,97815.41
2022-10-13T19:21:42.151Z,97814.19
2022-10-13T19:24:10.839Z,97812.91
2022-10-13T19:26:38.780Z,97811.91
2022-10-13T19:29:11.076Z,97809.19
2022-10-13T19:31:40.708Z,97810.66
2022-10-13T19:34:10.213Z,97817.88
2022-10-13T19:36:42.134Z,97823.06
2022-10-13T19:39:21.821Z,97818.72
2022-10-13T19:41:51.685Z,97820.97
2022-10-13T19:44:20.705Z,97821.59
2022-10-13T19:46:49.218Z,97814.53
2022-10-13T19:49:20.706Z,97814.53
2022-10-13T19:51:49.917Z,97817.44
2022-10-13T19:54:19.727Z,97829.06
2022-10-13T19:56:49.220Z,97819.09
2022-10-13T19:59:18.623Z,97826.38
2022-10-13T20:01:47.082Z,97826.16
2022-10-13T20:04:18.570Z,97827.38
2022-10-13T20:06:51.144Z,97822.19
2022-10-13T20:09:19.601Z,97824.50
2022-10-13T20:11:51.697Z,97822.81
2022-10-13T20:14:19.710Z,97827.38
2022-10-13T20:16:48.260Z,97822.34
2022-10-13T20:19:19.546Z,97824.44
2022-10-13T20:21:51.719Z,97824.00
2022-10-13T20:24:23.132Z,97834.34
2022-10-13T20:26:51.035Z,97832.88
2022-10-13T20:29:23.755Z,97835.59
2022-10-13T20:31:51.657Z,97838.88
2022-10-13T20:34:19.561Z,97832.84
2022-10-13T20:36:49.369Z,97837.41
2022-10-13T20:39:17.346Z,97840.09
2022-10-13T20:41:45.159Z,97834.72
2022-10-13T20:44:14.912Z,97835.09
2022-10-13T20:46:42.714Z,97837.78
2022-10-13T20:49:12.294Z,97834.47
2022-10-13T20:51:42.712Z,97831.16
2022-10-13T20:54:13.307Z,97830.72
2022-10-13T20:56:41.824Z,97827.19
2022-10-13T20:59:14.690Z,97824.06
2022-10-13T21:01:42.991Z,97824.69
2022-10-13T21:04:11.352Z,97824.25
2022-10-13T21:06:40.204Z,97811.00
2022-10-13T21:09:08.082Z,97819.91
2022-10-13T21:11:36.571Z,97814.13
2022-10-13T21:14:07.019Z,97818.06
2022-10-13T21:16:35.463Z,97820.19
2022-10-13T21:19:08.444Z,97821.81
2022-10-13T21:21:36.702Z,97820.56
2022-10-13T21:24:07.204Z,97827.63
2022-10-13T21:26:36.158Z,97833.03
2022-10-13T21:29:05.277Z,97828.47
2022-10-13T21:31:35.588Z,97830.97
2022-10-13T21:34:04.053Z,97832.41
2022-10-13T21:36:33.902Z,97833.00
2022-10-13T21:39:06.097Z,97828.00
2022-10-13T21:41:34.225Z,97831.53
2022-10-13T21:44:02.874Z,97827.19
2022-10-13T21:46:34.732Z,97829.88
2022-10-13T21:49:06.145Z,97835.25
2022-10-13T21:51:40.479Z,97832.97
2022-10-13T21:54:13.122Z,97831.94
2022-10-13T21:56:41.854Z,97829.25
2022-10-13T21:59:12.809Z,97822.63
2022-10-13T22:01:41.861Z,97824.28
2022-10-13T22:04:14.668Z,97828.22
2022-10-13T22:06:43.464Z,97823.25
2022-10-13T22:09:12.123Z,97827.63
2022-10-13T22:11:41.170Z,97830.31
2022-10-13T22:14:12.836Z,97834.25
2022-10-13T22:16:46.861Z,97832.63
2022-10-13T22:19:16.596Z,97829.72
2022-10-13T22:21:48.448Z,97835.72
2022-10-13T22:24:19.982Z,97836.78
2022-10-13T22:26:50.032Z,97841.34
2022-10-13T22:29:22.057Z,97839.03
2022-10-13T22:31:51.769Z,97832.63
2022-10-13T22:34:19.831Z,97832.81
2022-10-13T22:36:47.718Z,97834.47
2022-10-13T22:39:16.039Z,97831.34
2022-10-13T22:41:44.411Z,97833.22
2022-10-13T22:44:13.572Z,97831.56
2022-10-13T22:46:41.545Z,97830.94
2022-10-13T22:49:14.689Z,97840.28
2022-10-13T22:51:43.117Z,97833.81
2022-10-13T22:54:12.521Z,97831.13
2022-10-13T22:56:41.260Z,97831.13
2022-10-13T22:59:11.558Z,97834.03
2022-10-13T23:01:39.406Z,97830.50
2022-10-13T23:04:07.294Z,97825.94
2022-10-13T23:06:35.736Z,97826.34
2022-10-13T23:09:10.414Z,97820.94
2022-10-13T23:11:38.771Z,97823.44
2022-10-13T23:14:09.034Z,97820.94
2022-10-13T23:16:36.891Z,97822.00
2022-10-13T23:19:04.833Z,97815.38
2022-10-13T23:21:32.621Z,97814.56
2022-10-13T23:24:04.427Z,97814.75
2022-10-13T23:26:34.115Z,97816.00
2022-10-13T23:29:02.451Z,97817.00
2022-10-13T23:31:30.672Z,97820.31
2022-10-13T23:33:59.536Z,97809.13
2022-10-13T23:36:31.322Z,97816.38
2022-10-13T23:39:06.379Z,97817.00
2022-10-13T23:41:34.609Z,97813.88
2022-10-13T23:44:02.586Z,97819.25
2022-10-13T23:46:30.477Z,97815.75
2022-10-13T23:48:58.309Z,97817.00
2022-10-13T23:51:26.322Z,97811.81
2022-10-13T23:53:54.951Z,97814.50
2022-10-13T23:56:23.289Z,97804.56
2022-10-13T23:58:51.302Z,97809.75
